Time;durP1;ratioP1;P1;durP2;ratioP2;P2;SDS_P1;SDS_P2;PMS_P1;PMS_P2;Temp;Humidity;BMP_temperature;BMP_pressure;BME280_temperature;BME280_humidity;BME280_pressure;Samples;Min_cycle;Max_cycle;Signal;HPM_P1;HPM_P2
2020/12/15 08:02:31;;;;;;;22.35;3.63;;;;;;;;;;5109217;27;885203;-73
2020/12/15 08:05:13;;;;;;;22.02;3.67;;;;;;;;;;5146780;27;20019;-73
2020/12/15 08:07:46;;;;;;;20.15;3.83;;;;;;;;;;5147166;27;20027;-73
2020/12/15 08:10:12;;;;;;;17.63;4.00;;;;;;;;;;5126704;27;20404;-75
2020/12/15 08:12:38;;;;;;;18.73;4.35;;;;;;;;;;5146903;27;20027;-73
2020/12/15 08:15:04;;;;;;;17.33;4.10;;;;;;;;;;5144964;27;20046;-77
2020/12/15 08:17:32;;;;;;;13.40;3.78;;;;;;;;;;5145707;27;20083;-73
2020/12/15 08:20:02;;;;;;;15.23;4.40;;;;;;;;;;5146869;27;20481;-76
2020/12/15 08:22:27;;;;;;;21.55;4.57;;;;;;;;;;5146204;27;20027;-73
2020/12/15 08:24:54;;;;;;;19.75;4.68;;;;;;;;;;5147381;27;20080;-80
2020/12/15 08:27:22;;;;;;;14.70;4.88;;;;;;;;;;5147387;27;20023;-73
2020/12/15 08:29:47;;;;;;;23.58;5.40;;;;;;;;;;5146259;27;20027;-73
2020/12/15 08:32:12;;;;;;;14.07;4.03;;;;;;;;;;5143028;27;20035;-72
2020/12/15 08:34:37;;;;;;;14.43;4.30;;;;;;;;;;5147061;27;20527;-73
2020/12/15 08:37:04;;;;;;;14.90;4.63;;;;;;;;;;5146152;27;20021;-73
2020/12/15 08:39:32;;;;;;;21.38;7.10;;;;;;;;;;5146117;27;20474;-74
2020/12/15 08:41:59;;;;;;;15.05;4.28;;;;;;;;;;5146269;27;20123;-80
2020/12/15 08:44:25;;;;;;;14.23;4.50;;;;;;;;;;5146872;27;20026;-74
2020/12/15 08:46:51;;;;;;;16.10;4.68;;;;;;;;;;5147093;27;20113;-73
2020/12/15 08:49:16;;;;;;;22.38;4.18;;;;;;;;;;5144796;27;20094;-73
2020/12/15 08:51:49;;;;;;;19.65;4.03;;;;;;;;;;5146512;27;20422;-73
2020/12/15 08:54:14;;;;;;;21.33;4.20;;;;;;;;;;5143913;27;20084;-73
2020/12/15 08:56:40;;;;;;;20.05;4.75;;;;;;;;;;5145092;27;20014;-74
2020/12/15 08:59:15;;;;;;;25.38;4.25;;;;;;;;;;5146694;27;20021;-74
2020/12/15 09:01:41;;;;;;;18.60;3.92;;;;;;;;;;5125045;27;20043;-74
2020/12/15 09:04:07;;;;;;;28.05;5.68;;;;;;;;;;5146711;27;21265;-73
2020/12/15 09:06:33;;;;;;;21.55;5.93;;;;;;;;;;5143830;27;20050;-74
2020/12/15 09:08:59;;;;;;;35.05;7.00;;;;;;;;;;5145966;27;20058;-73
2020/12/15 09:11:24;;;;;;;126.95;11.05;;;;;;;;;;5146559;27;20140;-74
2020/12/15 09:13:50;;;;;;;44.67;6.32;;;;;;;;;;5132813;27;20031;-73
2020/12/15 09:16:22;;;;;;;150.75;10.35;;;;;;;;;;5132375;27;20046;-71
2020/12/15 09:18:47;;;;;;;30.95;4.70;;;;;;;;;;5132624;27;20034;-73
2020/12/15 09:21:17;;;;;;;82.32;7.57;;;;;;;;;;5133048;27;20031;-73
2020/12/15 09:23:42;;;;;;;16.33;3.85;;;;;;;;;;5132747;27;20055;-72
2020/12/15 09:26:08;;;;;;;23.67;4.97;;;;;;;;;;5130582;27;20060;-78
2020/12/15 09:28:33;;;;;;;17.65;4.15;;;;;;;;;;5132399;27;20035;-72
2020/12/15 09:30:58;;;;;;;13.05;3.60;;;;;;;;;;5129049;27;21008;-72
2020/12/15 09:33:23;;;;;;;24.98;4.70;;;;;;;;;;5131623;27;20015;-72
2020/12/15 09:35:49;;;;;;;44.38;12.45;;;;;;;;;;5132052;27;20027;-72
2020/12/15 09:38:15;;;;;;;33.78;10.93;;;;;;;;;;5131839;27;20038;-73
2020/12/15 09:40:40;;;;;;;34.13;7.60;;;;;;;;;;5131981;27;20023;-72
2020/12/15 09:43:05;;;;;;;25.40;7.55;;;;;;;;;;5130774;27;20049;-73
2020/12/15 09:45:30;;;;;;;15.45;4.45;;;;;;;;;;5131946;27;20027;-73
2020/12/15 09:47:59;;;;;;;21.98;3.75;;;;;;;;;;5114271;27;20083;-73
2020/12/15 09:50:24;;;;;;;18.13;3.97;;;;;;;;;;5132073;27;20027;-72
2020/12/15 09:52:50;;;;;;;20.02;4.22;;;;;;;;;;5131446;27;20697;-73
2020/12/15 09:55:15;;;;;;;23.90;5.18;;;;;;;;;;5131790;27;20474;-75
2020/12/15 09:57:40;;;;;;;27.25;6.00;;;;;;;;;;5112834;27;20111;-72
2020/12/15 10:00:05;;;;;;;34.42;7.30;;;;;;;;;;5129994;27;20027;-72
2020/12/15 10:02:31;;;;;;;35.75;9.93;;;;;;;;;;5127958;27;20092;-75
2020/12/15 10:04:56;;;;;;;33.13;7.93;;;;;;;;;;5131642;27;20046;-72
2020/12/15 10:07:21;;;;;;;11.43;4.10;;;;;;;;;;5131721;27;20038;-73
2020/12/15 10:09:46;;;;;;;14.70;3.85;;;;;;;;;;5130871;27;20007;-73
2020/12/15 10:12:12;;;;;;;24.70;5.82;;;;;;;;;;5131799;27;20524;-73
2020/12/15 10:14:37;;;;;;;26.10;7.07;;;;;;;;;;5128428;27;20027;-73
2020/12/15 10:17:03;;;;;;;31.65;7.18;;;;;;;;;;5122739;27;21366;-74
2020/12/15 10:19:28;;;;;;;21.17;7.15;;;;;;;;;;5122375;27;20019;-71
2020/12/15 10:21:55;;;;;;;20.48;5.95;;;;;;;;;;5125915;27;20806;-71
2020/12/15 10:24:20;;;;;;;14.60;4.13;;;;;;;;;;5128339;27;20068;-72
2020/12/15 10:26:45;;;;;;;14.43;3.60;;;;;;;;;;5126067;27;20043;-73
2020/12/15 10:29:10;;;;;;;13.82;3.38;;;;;;;;;;5115548;27;20027;-73
2020/12/15 10:31:36;;;;;;;15.95;3.72;;;;;;;;;;5127691;27;20031;-72
2020/12/15 10:34:01;;;;;;;17.40;3.17;;;;;;;;;;5130577;27;20038;-73
2020/12/15 10:36:26;;;;;;;12.93;3.95;;;;;;;;;;5128703;27;20410;-73
2020/12/15 10:38:53;;;;;;;17.58;3.85;;;;;;;;;;5130080;27;20043;-74
2020/12/15 10:41:23;;;;;;;19.15;3.50;;;;;;;;;;5121289;27;20475;-72
2020/12/15 10:43:49;;;;;;;21.08;4.55;;;;;;;;;;5122290;27;20023;-76
2020/12/15 10:46:14;;;;;;;22.92;3.78;;;;;;;;;;5129234;27;20064;-73
2020/12/15 10:48:39;;;;;;;12.52;3.05;;;;;;;;;;5130979;27;20038;-72
2020/12/15 10:51:04;;;;;;;28.48;5.10;;;;;;;;;;5130616;27;20069;-72
2020/12/15 10:53:30;;;;;;;19.00;4.95;;;;;;;;;;5130459;27;20022;-76
2020/12/15 10:55:55;;;;;;;24.48;6.28;;;;;;;;;;5130839;27;20037;-73
2020/12/15 10:58:20;;;;;;;16.58;5.22;;;;;;;;;;5129235;27;20068;-72
2020/12/15 11:00:46;;;;;;;11.18;4.18;;;;;;;;;;5111634;27;20102;-73
2020/12/15 11:03:11;;;;;;;19.20;5.60;;;;;;;;;;5130683;27;20035;-73
2020/12/15 11:05:36;;;;;;;21.25;5.00;;;;;;;;;;5129955;27;20037;-73
2020/12/15 11:08:02;;;;;;;16.63;4.47;;;;;;;;;;5130600;27;20019;-73
2020/12/15 11:10:27;;;;;;;33.03;12.63;;;;;;;;;;5129838;27;20427;-73
2020/12/15 11:12:52;;;;;;;21.02;5.82;;;;;;;;;;5129997;27;20027;-73
2020/12/15 11:15:17;;;;;;;22.02;5.57;;;;;;;;;;5129932;27;20023;-73
2020/12/15 11:17:43;;;;;;;16.08;4.90;;;;;;;;;;5130055;27;20510;-73
2020/12/15 11:20:08;;;;;;;19.85;4.50;;;;;;;;;;5129306;27;20042;-73
2020/12/15 11:22:33;;;;;;;22.40;5.95;;;;;;;;;;5130200;27;20882;-73
2020/12/15 11:24:59;;;;;;;22.58;5.25;;;;;;;;;;5129289;27;20034;-73
2020/12/15 11:27:24;;;;;;;20.25;5.65;;;;;;;;;;5130190;27;20128;-73
2020/12/15 11:29:49;;;;;;;20.50;5.70;;;;;;;;;;5129314;27;20027;-73
2020/12/15 11:32:15;;;;;;;25.48;5.57;;;;;;;;;;5128510;27;20030;-73
2020/12/15 11:34:40;;;;;;;20.38;5.05;;;;;;;;;;5129592;27;20023;-77
2020/12/15 11:37:09;;;;;;;20.30;5.22;;;;;;;;;;5130014;27;20027;-75
2020/12/15 11:39:35;;;;;;;17.48;4.10;;;;;;;;;;5130258;27;20413;-73
2020/12/15 11:42:05;;;;;;;23.38;5.90;;;;;;;;;;5130630;27;20577;-73
2020/12/15 11:44:30;;;;;;;16.25;3.90;;;;;;;;;;5111030;27;20015;-73
2020/12/15 11:46:55;;;;;;;24.67;4.45;;;;;;;;;;5129853;27;20815;-73
2020/12/15 11:49:20;;;;;;;21.42;4.40;;;;;;;;;;5129746;27;20030;-74
2020/12/15 11:51:46;;;;;;;28.65;3.92;;;;;;;;;;5128958;27;20026;-74
2020/12/15 11:54:12;;;;;;;18.77;2.30;;;;;;;;;;5130343;27;20063;-73
2020/12/15 11:56:37;;;;;;;21.30;3.15;;;;;;;;;;5130092;27;20036;-73
2020/12/15 11:59:03;;;;;;;16.50;1.98;;;;;;;;;;5127449;27;20019;-74
2020/12/15 12:01:28;;;;;;;19.10;1.58;;;;;;;;;;5129343;28;20402;-73
2020/12/15 12:03:53;;;;;;;17.55;2.28;;;;;;;;;;5130012;28;20066;-73
2020/12/15 12:06:18;;;;;;;13.63;1.70;;;;;;;;;;5130125;28;20015;-74
2020/12/15 12:08:44;;;;;;;18.58;3.78;;;;;;;;;;5129592;28;20059;-73
2020/12/15 12:11:09;;;;;;;20.08;1.83;;;;;;;;;;5121514;28;20054;-73
2020/12/15 12:13:35;;;;;;;13.18;1.50;;;;;;;;;;5130738;28;20094;-74
2020/12/15 12:16:01;;;;;;;9.63;1.48;;;;;;;;;;5130180;28;20034;-73
2020/12/15 12:18:26;;;;;;;14.60;1.60;;;;;;;;;;5130026;28;20162;-73
2020/12/15 12:20:51;;;;;;;15.65;1.63;;;;;;;;;;5130206;28;20023;-74
2020/12/15 12:23:17;;;;;;;16.35;1.70;;;;;;;;;;5120086;28;20035;-73
2020/12/15 12:25:42;;;;;;;7.18;1.50;;;;;;;;;;5122804;28;20019;-73
2020/12/15 12:28:07;;;;;;;27.95;2.05;;;;;;;;;;5128005;28;20024;-73
2020/12/15 12:30:32;;;;;;;24.35;2.47;;;;;;;;;;5128837;28;20031;-73
2020/12/15 12:32:58;;;;;;;10.18;2.85;;;;;;;;;;5130152;28;20379;-73
2020/12/15 12:35:23;;;;;;;17.30;1.70;;;;;;;;;;5130199;28;20034;-73
2020/12/15 12:37:48;;;;;;;15.85;1.75;;;;;;;;;;5130098;28;20395;-73
2020/12/15 12:40:14;;;;;;;8.30;1.60;;;;;;;;;;5128825;28;20505;-73
2020/12/15 12:42:39;;;;;;;10.85;1.63;;;;;;;;;;5129247;28;20019;-74
2020/12/15 12:45:05;;;;;;;15.63;1.75;;;;;;;;;;5129301;28;20118;-73
2020/12/15 12:47:30;;;;;;;20.95;6.13;;;;;;;;;;5130307;27;20046;-75
2020/12/15 12:49:55;;;;;;;18.88;5.63;;;;;;;;;;5134152;27;20023;-73
2020/12/15 12:52:21;;;;;;;30.60;10.60;;;;;;;;;;5133480;27;20039;-74
2020/12/15 12:54:46;;;;;;;55.00;23.02;;;;;;;;;;5132624;27;20055;-73
2020/12/15 12:57:11;;;;;;;33.63;14.25;;;;;;;;;;5133221;27;20024;-73
2020/12/15 12:59:37;;;;;;;16.73;4.88;;;;;;;;;;5133217;27;20031;-74
2020/12/15 13:02:03;;;;;;;13.98;3.05;;;;;;;;;;5131767;27;20050;-77
2020/12/15 13:04:28;;;;;;;14.98;3.05;;;;;;;;;;5132532;27;20030;-73
2020/12/15 13:06:54;;;;;;;9.50;2.55;;;;;;;;;;5132074;27;20058;-73
2020/12/15 13:09:20;;;;;;;13.32;2.47;;;;;;;;;;5132384;27;20045;-73
2020/12/15 13:11:45;;;;;;;13.05;3.45;;;;;;;;;;5130349;27;20056;-73
2020/12/15 13:14:10;;;;;;;11.15;2.70;;;;;;;;;;5132472;27;20092;-73
2020/12/15 13:16:36;;;;;;;11.23;2.92;;;;;;;;;;5131725;27;20509;-74
2020/12/15 13:19:02;;;;;;;11.90;2.05;;;;;;;;;;5129327;27;20034;-75
2020/12/15 13:21:28;;;;;;;16.75;3.45;;;;;;;;;;5130785;27;20035;-74
2020/12/15 13:23:53;;;;;;;20.75;3.42;;;;;;;;;;5131221;27;20347;-73
2020/12/15 13:26:22;;;;;;;17.55;6.05;;;;;;;;;;5131299;27;20060;-73
2020/12/15 13:28:47;;;;;;;17.33;3.20;;;;;;;;;;5130233;27;20027;-74
2020/12/15 13:31:13;;;;;;;20.05;4.05;;;;;;;;;;5128986;27;20038;-74
2020/12/15 13:33:38;;;;;;;23.23;9.00;;;;;;;;;;5132708;27;20068;-78
2020/12/15 13:36:06;;;;;;;25.48;6.47;;;;;;;;;;5131830;27;20344;-75
2020/12/15 13:38:32;;;;;;;38.42;10.52;;;;;;;;;;5132186;27;20030;-73
2020/12/15 13:40:58;;;;;;;16.45;5.70;;;;;;;;;;5132217;27;20019;-74
2020/12/15 13:43:23;;;;;;;21.10;6.43;;;;;;;;;;5131538;27;20030;-73
2020/12/15 13:45:48;;;;;;;20.63;4.28;;;;;;;;;;5132044;27;20023;-73
2020/12/15 13:48:13;;;;;;;12.68;3.20;;;;;;;;;;5120230;27;20025;-74
2020/12/15 13:50:39;;;;;;;19.33;3.45;;;;;;;;;;5131020;27;20058;-74
2020/12/15 13:53:04;;;;;;;9.95;2.63;;;;;;;;;;5128250;27;20031;-72
2020/12/15 13:55:29;;;;;;;12.38;2.75;;;;;;;;;;5126159;27;20451;-78
2020/12/15 13:57:54;;;;;;;22.73;3.47;;;;;;;;;;5129689;27;20123;-73
2020/12/15 14:00:20;;;;;;;19.30;3.47;;;;;;;;;;5115993;27;21434;-75
2020/12/15 14:02:45;;;;;;;21.13;3.33;;;;;;;;;;5130103;27;20068;-78
2020/12/15 14:05:10;;;;;;;16.65;2.75;;;;;;;;;;5128058;27;20038;-78
2020/12/15 14:07:36;;;;;;;20.75;4.68;;;;;;;;;;5129383;27;20098;-76
2020/12/15 14:10:04;;;;;;;19.50;3.75;;;;;;;;;;5128100;27;20023;-74
2020/12/15 14:12:30;;;;;;;14.98;3.10;;;;;;;;;;5119920;27;20039;-74
2020/12/15 14:14:55;;;;;;;11.10;2.42;;;;;;;;;;5130198;27;20084;-74
2020/12/15 14:17:20;;;;;;;18.63;3.65;;;;;;;;;;5130854;27;20022;-75
2020/12/15 14:19:45;;;;;;;9.63;2.45;;;;;;;;;;5130571;27;21183;-74
2020/12/15 14:22:11;;;;;;;9.27;2.17;;;;;;;;;;5130931;27;20030;-73
2020/12/15 14:24:36;;;;;;;12.13;2.25;;;;;;;;;;5130874;27;20019;-74
2020/12/15 14:27:01;;;;;;;13.25;2.83;;;;;;;;;;5130997;27;20035;-74
2020/12/15 14:29:27;;;;;;;13.57;2.63;;;;;;;;;;5128927;27;20167;-73
2020/12/15 14:31:55;;;;;;;16.48;3.00;;;;;;;;;;5130776;27;20046;-77
2020/12/15 14:34:20;;;;;;;12.10;3.40;;;;;;;;;;5129899;27;20146;-74
2020/12/15 14:36:46;;;;;;;9.38;1.83;;;;;;;;;;5130825;27;20473;-74
2020/12/15 14:39:11;;;;;;;11.60;2.63;;;;;;;;;;5130849;27;20415;-74
2020/12/15 14:41:36;;;;;;;15.85;3.33;;;;;;;;;;5131092;27;20122;-74
2020/12/15 14:44:02;;;;;;;12.13;2.53;;;;;;;;;;5129176;27;20023;-74
2020/12/15 14:46:27;;;;;;;11.05;2.45;;;;;;;;;;5129900;27;20045;-77
2020/12/15 14:48:56;;;;;;;12.68;2.15;;;;;;;;;;5129897;27;20034;-75
2020/12/15 14:51:21;;;;;;;16.05;2.38;;;;;;;;;;5126614;27;20041;-76
2020/12/15 14:53:46;;;;;;;12.35;2.08;;;;;;;;;;5128416;27;20026;-74
2020/12/15 14:56:12;;;;;;;12.65;3.53;;;;;;;;;;5128389;27;20054;-73
2020/12/15 14:58:37;;;;;;;21.42;3.78;;;;;;;;;;5128276;27;20072;-75
2020/12/15 15:01:02;;;;;;;15.80;5.00;;;;;;;;;;5117809;27;20058;-75
2020/12/15 15:03:28;;;;;;;18.08;4.88;;;;;;;;;;5130623;27;20557;-74
2020/12/15 15:05:53;;;;;;;13.63;8.63;;;;;;;;;;5127366;27;20023;-74
2020/12/15 15:08:19;;;;;;;13.00;3.20;;;;;;;;;;5124927;27;20007;-74
2020/12/15 15:10:44;;;;;;;19.30;5.95;;;;;;;;;;5127692;27;20114;-74
2020/12/15 15:13:09;;;;;;;11.02;4.18;;;;;;;;;;5129103;27;20028;-74
2020/12/15 15:15:35;;;;;;;16.20;6.15;;;;;;;;;;5130168;27;20054;-74
2020/12/15 15:18:00;;;;;;;16.42;4.90;;;;;;;;;;5130541;27;20126;-76
2020/12/15 15:20:26;;;;;;;13.27;3.20;;;;;;;;;;5129132;27;20055;-73
2020/12/15 15:22:51;;;;;;;8.93;3.05;;;;;;;;;;5129799;27;20083;-76
2020/12/15 15:25:16;;;;;;;13.40;3.10;;;;;;;;;;5128755;27;20034;-74
2020/12/15 15:27:41;;;;;;;8.27;3.08;;;;;;;;;;5129337;27;20409;-75
2020/12/15 15:30:08;;;;;;;13.57;3.65;;;;;;;;;;5126752;27;20030;-78
2020/12/15 15:32:33;;;;;;;13.43;4.75;;;;;;;;;;5127209;27;20031;-74
2020/12/15 15:34:58;;;;;;;12.70;3.97;;;;;;;;;;5128643;27;20041;-74
2020/12/15 15:37:24;;;;;;;12.35;2.53;;;;;;;;;;5129505;27;20027;-74
2020/12/15 15:39:49;;;;;;;9.00;2.17;;;;;;;;;;5128089;27;20156;-73
2020/12/15 15:42:14;;;;;;;10.98;2.05;;;;;;;;;;5130237;27;20031;-74
2020/12/15 15:44:40;;;;;;;7.43;2.08;;;;;;;;;;5130329;27;20068;-75
2020/12/15 15:47:05;;;;;;;12.82;1.98;;;;;;;;;;5127809;27;20042;-74
2020/12/15 15:49:31;;;;;;;12.00;2.55;;;;;;;;;;5129936;27;20537;-73
2020/12/15 15:51:56;;;;;;;11.10;2.50;;;;;;;;;;5118540;27;20035;-74
2020/12/15 15:54:22;;;;;;;11.95;2.20;;;;;;;;;;5124419;27;20149;-74
2020/12/15 15:56:47;;;;;;;16.52;2.70;;;;;;;;;;5127486;27;20027;-74
2020/12/15 15:59:14;;;;;;;17.30;4.47;;;;;;;;;;5129010;27;20504;-74
2020/12/15 16:01:40;;;;;;;14.85;3.30;;;;;;;;;;5127783;27;20046;-73
2020/12/15 16:04:06;;;;;;;13.20;2.20;;;;;;;;;;5129277;28;20027;-73
2020/12/15 16:06:31;;;;;;;18.95;7.70;;;;;;;;;;5129283;28;20466;-73
2020/12/15 16:08:56;;;;;;;12.55;6.50;;;;;;;;;;5129353;28;20039;-73
2020/12/15 16:11:22;;;;;;;15.43;6.38;;;;;;;;;;5109659;28;20047;-73
2020/12/15 16:13:47;;;;;;;16.08;3.80;;;;;;;;;;5128492;28;20034;-78
2020/12/15 16:16:12;;;;;;;22.88;7.28;;;;;;;;;;5129170;28;20031;-74
2020/12/15 16:18:38;;;;;;;21.55;8.43;;;;;;;;;;5128321;28;20166;-73
2020/12/15 16:21:06;;;;;;;23.58;8.65;;;;;;;;;;5126329;28;20023;-74
2020/12/15 16:23:32;;;;;;;40.10;13.07;;;;;;;;;;5131377;27;20028;-74
2020/12/15 16:25:57;;;;;;;29.63;11.82;;;;;;;;;;5132575;27;20436;-73
2020/12/15 16:28:22;;;;;;;16.05;6.13;;;;;;;;;;5132225;27;20027;-74
2020/12/15 16:30:47;;;;;;;43.08;11.60;;;;;;;;;;5132480;27;20039;-73
2020/12/15 16:33:13;;;;;;;36.80;7.90;;;;;;;;;;5131544;27;20015;-73
2020/12/15 16:35:38;;;;;;;28.85;8.02;;;;;;;;;;5132357;27;20063;-74
2020/12/15 16:38:04;;;;;;;20.23;5.70;;;;;;;;;;5128926;27;20111;-74
2020/12/15 16:40:29;;;;;;;34.20;8.00;;;;;;;;;;5123497;27;20109;-74
2020/12/15 16:42:54;;;;;;;25.17;5.57;;;;;;;;;;5126618;27;20026;-78
2020/12/15 16:45:20;;;;;;;19.52;6.53;;;;;;;;;;5129329;27;20072;-75
2020/12/15 16:47:45;;;;;;;21.95;5.95;;;;;;;;;;5130920;27;20023;-73
2020/12/15 16:50:13;;;;;;;22.20;7.63;;;;;;;;;;5128684;27;20433;-73
2020/12/15 16:52:41;;;;;;;40.70;13.23;;;;;;;;;;5125202;27;20046;-78
2020/12/15 16:55:07;;;;;;;57.50;25.75;;;;;;;;;;5123273;27;20138;-74
2020/12/15 16:57:33;;;;;;;44.83;21.92;;;;;;;;;;5125826;27;20460;-77
2020/12/15 16:59:58;;;;;;;40.15;19.30;;;;;;;;;;5119753;27;20019;-79
2020/12/15 17:02:23;;;;;;;42.80;19.27;;;;;;;;;;5129922;27;20395;-73
2020/12/15 17:04:49;;;;;;;29.75;11.27;;;;;;;;;;5132055;27;20861;-74
2020/12/15 17:07:15;;;;;;;30.05;12.13;;;;;;;;;;5132259;27;20023;-73
2020/12/15 17:09:41;;;;;;;127.47;64.20;;;;;;;;;;5131176;27;20031;-75
2020/12/15 17:12:06;;;;;;;180.85;98.50;;;;;;;;;;5132387;27;20039;-75
2020/12/15 17:14:32;;;;;;;153.52;87.18;;;;;;;;;;5132145;27;20030;-77
2020/12/15 17:16:57;;;;;;;212.57;117.55;;;;;;;;;;5133116;27;20079;-74
2020/12/15 17:19:22;;;;;;;346.33;187.95;;;;;;;;;;5131399;27;20034;-74
2020/12/15 17:21:48;;;;;;;310.10;167.30;;;;;;;;;;5130708;27;20080;-73
2020/12/15 17:24:13;;;;;;;265.38;140.80;;;;;;;;;;5131397;27;20027;-73
2020/12/15 17:26:38;;;;;;;229.90;118.10;;;;;;;;;;5131127;27;20340;-73
2020/12/15 17:29:03;;;;;;;87.32;39.45;;;;;;;;;;5132726;27;20064;-73
2020/12/15 17:31:29;;;;;;;117.07;63.90;;;;;;;;;;5130906;27;20047;-74
2020/12/15 17:33:54;;;;;;;116.10;63.83;;;;;;;;;;5122894;27;20023;-73
2020/12/15 17:36:20;;;;;;;78.85;46.33;;;;;;;;;;5127704;27;20351;-73
2020/12/15 17:38:46;;;;;;;98.85;51.35;;;;;;;;;;5126929;27;20031;-74
2020/12/15 17:41:12;;;;;;;139.98;81.53;;;;;;;;;;5126794;27;20023;-77
2020/12/15 17:43:38;;;;;;;112.50;62.97;;;;;;;;;;5129984;27;20031;-73
2020/12/15 17:46:03;;;;;;;141.38;80.45;;;;;;;;;;5127007;27;20031;-73
2020/12/15 17:48:29;;;;;;;145.50;82.38;;;;;;;;;;5129012;27;20011;-73
2020/12/15 17:50:54;;;;;;;199.82;93.68;;;;;;;;;;5127518;27;20035;-73
2020/12/15 17:53:19;;;;;;;179.30;77.40;;;;;;;;;;5129735;27;20498;-73
2020/12/15 17:55:44;;;;;;;193.25;84.00;;;;;;;;;;5127717;27;20038;-74
2020/12/15 17:58:10;;;;;;;106.60;52.58;;;;;;;;;;5128650;27;20023;-73
2020/12/15 18:00:37;;;;;;;99.03;43.80;;;;;;;;;;5127027;27;20031;-74
2020/12/15 18:03:02;;;;;;;135.23;60.28;;;;;;;;;;5128240;27;20027;-73
2020/12/15 18:05:27;;;;;;;156.65;60.33;;;;;;;;;;5122614;27;20110;-73
2020/12/15 18:07:53;;;;;;;148.35;53.95;;;;;;;;;;5124658;27;20094;-73
2020/12/15 18:10:18;;;;;;;182.45;61.92;;;;;;;;;;5129335;27;20007;-79
2020/12/15 18:12:44;;;;;;;219.48;81.22;;;;;;;;;;5128829;27;20112;-77
2020/12/15 18:15:09;;;;;;;246.02;94.03;;;;;;;;;;5128222;27;20042;-73
2020/12/15 18:17:34;;;;;;;109.13;40.95;;;;;;;;;;5128667;27;20443;-73
2020/12/15 18:19:59;;;;;;;63.58;27.02;;;;;;;;;;5128326;27;20030;-77
2020/12/15 18:22:25;;;;;;;150.07;61.22;;;;;;;;;;5129243;27;20062;-74
2020/12/15 18:24:50;;;;;;;184.60;78.82;;;;;;;;;;5126734;27;20022;-73
2020/12/15 18:27:15;;;;;;;119.22;48.08;;;;;;;;;;5130350;27;20740;-74
2020/12/15 18:29:41;;;;;;;101.43;44.00;;;;;;;;;;5130398;27;20023;-74
2020/12/15 18:32:06;;;;;;;79.50;33.60;;;;;;;;;;5131312;27;20508;-73
2020/12/15 18:34:31;;;;;;;53.65;20.27;;;;;;;;;;5131587;27;20438;-73
2020/12/15 18:36:56;;;;;;;53.47;22.60;;;;;;;;;;5131270;27;20023;-73
2020/12/15 18:39:24;;;;;;;45.90;20.92;;;;;;;;;;5131089;27;20015;-73
2020/12/15 18:41:49;;;;;;;47.53;20.13;;;;;;;;;;5131462;27;20087;-73
2020/12/15 18:44:15;;;;;;;75.72;30.00;;;;;;;;;;5131352;27;20027;-73
2020/12/15 18:46:40;;;;;;;63.10;30.10;;;;;;;;;;5129740;27;20019;-72
2020/12/15 18:49:05;;;;;;;60.65;24.27;;;;;;;;;;5129220;27;20030;-73
2020/12/15 18:51:31;;;;;;;66.82;24.92;;;;;;;;;;5127984;27;20031;-73
2020/12/15 18:53:56;;;;;;;56.25;24.38;;;;;;;;;;5123642;27;20340;-75
2020/12/15 18:56:21;;;;;;;62.10;22.85;;;;;;;;;;5127302;27;20126;-73
2020/12/15 18:58:47;;;;;;;47.80;15.63;;;;;;;;;;5129753;27;20034;-73
2020/12/15 19:01:12;;;;;;;43.05;12.65;;;;;;;;;;5126299;27;20095;-73
2020/12/15 19:03:37;;;;;;;34.58;10.63;;;;;;;;;;5126886;27;20527;-74
2020/12/15 19:06:03;;;;;;;38.25;7.85;;;;;;;;;;5130706;27;20051;-75
2020/12/15 19:08:28;;;;;;;35.13;6.78;;;;;;;;;;5128711;27;20580;-74
2020/12/15 19:10:53;;;;;;;40.97;8.10;;;;;;;;;;5113299;27;20043;-74
2020/12/15 19:13:19;;;;;;;21.33;7.45;;;;;;;;;;5126600;27;20414;-74
2020/12/15 19:15:44;;;;;;;45.38;7.88;;;;;;;;;;5127252;27;20023;-76
2020/12/15 19:18:09;;;;;;;25.50;5.82;;;;;;;;;;5126661;27;20160;-74
2020/12/15 19:20:35;;;;;;;36.67;6.65;;;;;;;;;;5120470;27;20955;-75
2020/12/15 19:23:00;;;;;;;26.10;7.10;;;;;;;;;;5113597;27;20026;-74
2020/12/15 19:25:25;;;;;;;25.85;6.75;;;;;;;;;;5120350;27;20534;-75
2020/12/15 19:27:51;;;;;;;36.83;7.78;;;;;;;;;;5126210;27;20114;-76
2020/12/15 19:30:17;;;;;;;21.58;6.57;;;;;;;;;;5124956;27;20071;-78
2020/12/15 19:32:42;;;;;;;28.88;6.22;;;;;;;;;;5124834;27;20070;-75
2020/12/15 19:35:08;;;;;;;33.67;6.35;;;;;;;;;;5125605;27;20054;-76
2020/12/15 19:37:34;;;;;;;36.85;5.85;;;;;;;;;;5124726;27;20412;-78
2020/12/15 19:40:00;;;;;;;25.02;5.55;;;;;;;;;;5106292;27;20035;-74
2020/12/15 19:42:25;;;;;;;31.75;6.53;;;;;;;;;;5125404;27;20064;-76
2020/12/15 19:44:51;;;;;;;24.83;6.55;;;;;;;;;;5125397;27;20038;-74
2020/12/15 19:47:16;;;;;;;28.77;9.38;;;;;;;;;;5122221;27;20027;-73
2020/12/15 19:49:42;;;;;;;27.48;5.35;;;;;;;;;;5123991;27;20023;-78
2020/12/15 19:52:07;;;;;;;27.00;5.72;;;;;;;;;;5112752;27;20031;-74
2020/12/15 19:54:33;;;;;;;26.52;6.00;;;;;;;;;;5124868;27;20628;-74
2020/12/15 19:57:02;;;;;;;28.65;5.85;;;;;;;;;;5123685;27;20023;-74
2020/12/15 19:59:27;;;;;;;24.75;5.72;;;;;;;;;;5117252;27;20156;-75
2020/12/15 20:01:52;;;;;;;48.22;14.48;;;;;;;;;;5122901;27;20121;-77
2020/12/15 20:04:18;;;;;;;60.63;19.13;;;;;;;;;;5125738;28;20031;-73
2020/12/15 20:06:44;;;;;;;65.45;26.00;;;;;;;;;;5124266;28;20027;-74
2020/12/15 20:09:09;;;;;;;45.35;12.52;;;;;;;;;;5124279;28;20678;-74
2020/12/15 20:11:34;;;;;;;44.47;15.93;;;;;;;;;;5124588;28;20053;-78
2020/12/15 20:14:00;;;;;;;67.13;25.25;;;;;;;;;;5126700;28;20015;-74
2020/12/15 20:16:25;;;;;;;81.82;34.28;;;;;;;;;;5125352;28;20031;-75
2020/12/15 20:18:50;;;;;;;76.63;25.40;;;;;;;;;;5124054;28;20411;-76
2020/12/15 20:21:16;;;;;;;87.10;32.47;;;;;;;;;;5126469;28;20022;-77
2020/12/15 20:23:42;;;;;;;49.42;16.77;;;;;;;;;;5126294;28;20039;-75
2020/12/15 20:26:07;;;;;;;46.75;11.75;;;;;;;;;;5126281;28;20023;-75
2020/12/15 20:28:36;;;;;;;83.45;32.80;;;;;;;;;;5130901;28;20412;-75
2020/12/15 20:31:02;;;;;;;60.83;24.25;;;;;;;;;;5132238;28;20111;-73
2020/12/15 20:33:27;;;;;;;68.38;28.10;;;;;;;;;;5132848;28;20114;-74
2020/12/15 20:35:53;;;;;;;33.17;14.85;;;;;;;;;;5122931;28;20027;-75
2020/12/15 20:38:18;;;;;;;39.25;12.93;;;;;;;;;;5130496;28;20382;-74
2020/12/15 20:40:43;;;;;;;32.10;7.55;;;;;;;;;;5116788;28;20027;-73
2020/12/15 20:43:09;;;;;;;32.85;10.32;;;;;;;;;;5131863;28;20011;-73
2020/12/15 20:45:34;;;;;;;44.67;13.32;;;;;;;;;;5132208;28;20478;-73
2020/12/15 20:47:59;;;;;;;45.70;13.75;;;;;;;;;;5130745;28;20019;-74
2020/12/15 20:50:24;;;;;;;49.40;17.13;;;;;;;;;;5128575;28;20473;-73
2020/12/15 20:52:50;;;;;;;104.03;44.08;;;;;;;;;;5130709;28;20037;-74
2020/12/15 20:55:15;;;;;;;113.68;45.13;;;;;;;;;;5131257;28;20102;-73
2020/12/15 20:57:40;;;;;;;118.50;46.53;;;;;;;;;;5131049;28;20026;-73
2020/12/15 21:00:06;;;;;;;112.53;45.88;;;;;;;;;;5131278;28;20422;-73
2020/12/15 21:02:32;;;;;;;143.63;50.85;;;;;;;;;;5117897;28;20151;-73
2020/12/15 21:04:57;;;;;;;123.90;52.60;;;;;;;;;;5127668;27;20467;-74
2020/12/15 21:07:23;;;;;;;79.35;29.67;;;;;;;;;;5127829;28;20136;-73
2020/12/15 21:09:51;;;;;;;79.28;33.58;;;;;;;;;;5128997;27;20031;-73
2020/12/15 21:12:18;;;;;;;95.35;35.60;;;;;;;;;;5131651;27;20034;-73
2020/12/15 21:14:44;;;;;;;91.55;35.05;;;;;;;;;;5132259;27;20031;-73
2020/12/15 21:17:09;;;;;;;87.13;33.35;;;;;;;;;;5116131;27;21026;-73
2020/12/15 21:19:34;;;;;;;99.70;29.05;;;;;;;;;;5128268;27;20026;-74
2020/12/15 21:22:00;;;;;;;108.00;34.47;;;;;;;;;;5129037;27;20035;-73
2020/12/15 21:24:25;;;;;;;90.20;31.25;;;;;;;;;;5128915;27;20491;-74
2020/12/15 21:26:50;;;;;;;84.97;28.65;;;;;;;;;;5127422;27;20384;-75
2020/12/15 21:29:15;;;;;;;95.50;34.53;;;;;;;;;;5129856;27;20031;-74
2020/12/15 21:31:41;;;;;;;100.03;36.85;;;;;;;;;;5130640;27;20039;-74
2020/12/15 21:34:06;;;;;;;88.25;34.20;;;;;;;;;;5129848;27;20019;-74
2020/12/15 21:36:31;;;;;;;83.47;30.30;;;;;;;;;;5131426;27;20031;-75
2020/12/15 21:38:58;;;;;;;86.45;35.83;;;;;;;;;;5130294;27;20039;-73
2020/12/15 21:41:24;;;;;;;71.78;31.15;;;;;;;;;;5130234;27;20493;-74
2020/12/15 21:43:50;;;;;;;84.82;34.95;;;;;;;;;;5131311;27;20035;-74
2020/12/15 21:46:25;;;;;;;58.95;24.05;;;;;;;;;;5130273;27;20134;-74
2020/12/15 21:48:51;;;;;;;44.53;19.58;;;;;;;;;;5129150;27;20020;-74
2020/12/15 21:51:16;;;;;;;47.90;20.27;;;;;;;;;;5118186;27;20083;-74
2020/12/15 21:53:41;;;;;;;58.10;20.70;;;;;;;;;;5131280;27;20027;-74
2020/12/15 21:56:07;;;;;;;33.75;14.88;;;;;;;;;;5120725;27;20014;-74
2020/12/15 21:58:32;;;;;;;31.60;11.73;;;;;;;;;;5128088;27;20035;-74
2020/12/15 22:00:57;;;;;;;61.25;21.05;;;;;;;;;;5128026;27;20409;-74
2020/12/15 22:03:23;;;;;;;72.57;22.55;;;;;;;;;;5129796;27;20027;-75
2020/12/15 22:05:48;;;;;;;67.75;24.38;;;;;;;;;;5129601;27;20090;-74
2020/12/15 22:08:13;;;;;;;77.03;22.73;;;;;;;;;;5127899;27;20022;-76
2020/12/15 22:10:38;;;;;;;49.88;15.32;;;;;;;;;;5125092;27;20076;-73
2020/12/15 22:13:04;;;;;;;58.40;16.65;;;;;;;;;;5130054;27;20411;-74
2020/12/15 22:15:29;;;;;;;51.75;15.65;;;;;;;;;;5130202;27;20110;-74